Аэропорт: Жезказган. Жезказган

ICAO: UAKD

METAR:
Информация по данной станции не доступна
METAR:
2019-07-23 14:00:00
TAF UAKD 231400Z 2315/2324 31005MPS 9999 SCT040CB BKN100 TEMPO 2315/2321 34005MPS 5000 FU